Time;durP1;ratioP1;P1;durP2;ratioP2;P2;SDS_P1;SDS_P2;PMS_P1;PMS_P2;Temp;Humidity;BMP_temperature;BMP_pressure;BME280_temperature;BME280_humidity;BME280_pressure;Samples;Min_cycle;Max_cycle;Signal;HPM_P1;HPM_P2
2023/10/11 00:00:24;;;;;;;12.15;3.95;;;;;17.40;94590.00;;;;7402435;19;20152;-88
2023/10/11 00:02:52;;;;;;;11.68;3.67;;;;;17.40;94594.00;;;;7402899;19;20157;-88
2023/10/11 00:05:39;;;;;;;14.13;3.80;;;;;17.30;94589.00;;;;7405891;19;20132;-89
2023/10/11 00:08:38;;;;;;;12.80;4.28;;;;;17.30;94585.00;;;;7402173;19;20169;-88
2023/10/11 00:11:19;;;;;;;17.80;3.90;;;;;17.40;94590.00;;;;7404726;19;20153;-88
2023/10/11 00:14:04;;;;;;;11.00;3.30;;;;;17.40;94589.00;;;;7403303;19;20140;-88
2023/10/11 00:16:39;;;;;;;11.80;3.67;;;;;17.70;94588.00;;;;7402820;19;20208;-88
2023/10/11 00:19:09;;;;;;;11.75;3.75;;;;;17.60;94595.00;;;;7404201;19;20169;-88
2023/10/11 00:21:49;;;;;;;13.85;4.13;;;;;17.60;94585.00;;;;7403049;19;20145;-88
2023/10/11 00:24:23;;;;;;;10.13;3.78;;;;;17.40;94585.00;;;;7405046;19;20129;-89
2023/10/11 00:27:00;;;;;;;9.20;3.92;;;;;17.40;94581.00;;;;7403082;19;20137;-89
2023/10/11 00:29:29;;;;;;;10.27;3.50;;;;;17.50;94578.00;;;;7404557;19;20133;-90
2023/10/11 00:32:04;;;;;;;8.60;3.90;;;;;17.60;94582.00;;;;7405113;19;20156;-91
2023/10/11 00:34:34;;;;;;;10.73;3.67;;;;;17.50;94579.00;;;;7404713;19;20148;-91
2023/10/11 00:37:09;;;;;;;11.23;3.95;;;;;17.60;94574.00;;;;7404612;19;20592;-91
2023/10/11 00:39:43;;;;;;;10.15;3.25;;;;;17.60;94570.00;;;;7402046;19;20151;-91
2023/10/11 00:42:10;;;;;;;9.45;3.85;;;;;17.70;94564.00;;;;7404722;19;20184;-91
2023/10/11 00:44:47;;;;;;;15.02;3.90;;;;;17.60;94566.00;;;;7406960;19;20149;-91
2023/10/11 00:47:22;;;;;;;9.68;3.35;;;;;17.60;94562.00;;;;7403915;19;20145;-91
2023/10/11 00:49:50;;;;;;;11.60;3.63;;;;;17.70;94569.00;;;;7406592;19;20189;-91
2023/10/11 00:52:24;;;;;;;10.40;3.47;;;;;17.70;94563.00;;;;7404405;19;20147;-91
2023/10/11 00:54:59;;;;;;;12.90;3.35;;;;;17.70;94566.00;;;;7404253;19;20168;-91
2023/10/11 00:57:33;;;;;;;9.90;3.70;;;;;17.70;94560.00;;;;7405725;19;20133;-90
2023/10/11 01:00:12;;;;;;;10.95;3.60;;;;;17.60;94567.00;;;;7408048;19;20133;-91
2023/10/11 01:02:56;;;;;;;9.20;3.47;;;;;17.50;94553.00;;;;7395008;19;20200;-80
2023/10/11 01:05:24;;;;;;;13.48;4.05;;;;;17.20;94567.00;;;;7397538;19;20152;-80
2023/10/11 01:07:59;;;;;;;7.28;3.15;;;;;16.90;94560.00;;;;7395610;19;20132;-80
2023/10/11 01:10:34;;;;;;;9.48;3.50;;;;;16.70;94554.00;;;;7397206;19;20211;-78
2023/10/11 01:13:02;;;;;;;8.73;3.47;;;;;16.80;94560.00;;;;7393943;19;20133;-78
2023/10/11 01:15:36;;;;;;;8.93;3.85;;;;;17.00;94554.00;;;;7397833;19;20140;-79
2023/10/11 01:18:12;;;;;;;8.43;3.63;;;;;16.90;94556.00;;;;7402114;19;20155;-79
2023/10/11 01:20:47;;;;;;;7.90;3.88;;;;;16.90;94556.00;;;;7401280;19;20630;-78
2023/10/11 01:23:15;;;;;;;6.60;3.55;;;;;17.10;94551.00;;;;7400525;19;20156;-79
2023/10/11 01:25:42;;;;;;;10.90;3.80;;;;;16.90;94548.00;;;;7398288;19;20541;-78
2023/10/11 01:28:18;;;;;;;7.57;3.42;;;;;17.20;94553.00;;;;7397527;19;20265;-79
2023/10/11 01:30:47;;;;;;;12.38;3.67;;;;;17.10;94549.00;;;;7398014;19;20165;-78
2023/10/11 01:33:22;;;;;;;12.02;4.25;;;;;17.30;94533.00;;;;7397510;19;20165;-79
2023/10/11 01:36:04;;;;;;;9.68;3.50;;;;;17.70;94537.00;;;;7397699;19;20163;-80
2023/10/11 01:38:49;;;;;;;6.30;3.38;;;;;17.40;94537.00;;;;7397472;19;20161;-79
2023/10/11 01:41:26;;;;;;;8.73;3.45;;;;;17.30;94535.00;;;;7399628;19;20196;-77
2023/10/11 01:44:00;;;;;;;8.23;3.67;;;;;17.10;94542.00;;;;7397533;19;20157;-79
2023/10/11 01:46:41;;;;;;;8.85;3.65;;;;;17.00;94539.00;;;;7397100;19;20582;-79
2023/10/11 01:49:18;;;;;;;11.57;3.83;;;;;16.80;94540.00;;;;7395290;19;20157;-79
2023/10/11 01:51:52;;;;;;;11.65;3.85;;;;;16.80;94543.00;;;;7395221;19;20603;-79
2023/10/11 01:54:26;;;;;;;8.88;3.55;;;;;16.80;94535.00;;;;7398462;19;20605;-79
2023/10/11 01:57:01;;;;;;;9.73;3.55;;;;;16.40;94540.00;;;;7397679;19;20136;-80
2023/10/11 01:59:36;;;;;;;6.68;3.25;;;;;16.50;94538.00;;;;7398224;19;20152;-80
2023/10/11 02:02:09;;;;;;;11.60;3.70;;;;;16.30;94536.00;;;;7396027;19;20175;-78
2023/10/11 02:04:50;;;;;;;7.18;3.28;;;;;16.20;94534.00;;;;7395913;19;20591;-79
2023/10/11 02:07:25;;;;;;;15.13;4.00;;;;;16.20;94531.00;;;;7395867;19;20615;-79
2023/10/11 02:10:25;;;;;;;10.25;3.97;;;;;16.40;94531.00;;;;7396256;19;20137;-79
2023/10/11 02:12:59;;;;;;;7.57;3.13;;;;;16.50;94539.00;;;;7396405;19;20575;-79
2023/10/11 02:15:40;;;;;;;9.23;4.13;;;;;16.40;94532.00;;;;7394385;19;20459;-78
2023/10/11 02:18:10;;;;;;;14.52;4.10;;;;;16.40;94531.00;;;;7396617;19;20207;-78
2023/10/11 02:20:47;;;;;;;9.82;3.60;;;;;16.20;94535.00;;;;7395690;19;20145;-78
2023/10/11 02:23:16;;;;;;;9.70;3.83;;;;;16.40;94528.00;;;;7394795;19;20626;-79
2023/10/11 02:25:46;;;;;;;9.55;3.88;;;;;16.50;94533.00;;;;7397183;19;20142;-79
2023/10/11 02:28:21;;;;;;;6.28;3.28;;;;;16.70;94526.00;;;;7394553;19;20147;-78
2023/10/11 02:30:55;;;;;;;14.98;3.50;;;;;16.80;94526.00;;;;7394686;19;20157;-80
2023/10/11 02:33:32;;;;;;;13.85;3.88;;;;;16.70;94521.00;;;;7395133;19;20611;-79
2023/10/11 02:36:08;;;;;;;16.27;3.80;;;;;16.60;94524.00;;;;7396451;19;20133;-79
2023/10/11 02:38:54;;;;;;;8.38;3.45;;;;;16.50;94527.00;;;;7395270;19;20169;-79
2023/10/11 02:41:29;;;;;;;12.90;3.97;;;;;16.60;94517.00;;;;7394098;19;20148;-78
2023/10/11 02:44:03;;;;;;;10.52;3.92;;;;;16.50;94517.00;;;;7395069;19;20599;-79
2023/10/11 02:46:33;;;;;;;13.05;3.83;;;;;16.50;94512.00;;;;7394882;19;20515;-78
2023/10/11 02:49:21;;;;;;;8.93;4.20;;;;;16.40;94517.00;;;;7394087;19;20470;-80
2023/10/11 02:52:08;;;;;;;13.68;3.80;;;;;16.50;94512.00;;;;7394464;19;20113;-80
2023/10/11 02:54:39;;;;;;;7.72;4.00;;;;;16.30;94510.00;;;;7395249;19;20494;-79
2023/10/11 02:57:19;;;;;;;6.47;3.40;;;;;16.30;94510.00;;;;7394511;19;20149;-79
2023/10/11 02:59:56;;;;;;;10.63;3.78;;;;;16.10;94510.00;;;;7393666;19;20159;-79
2023/10/11 03:02:30;;;;;;;13.27;3.88;;;;;15.90;94506.00;;;;7394701;19;20181;-80
2023/10/11 03:05:12;;;;;;;9.50;3.63;;;;;15.70;94510.00;;;;7403553;19;20210;-79
2023/10/11 03:07:46;;;;;;;10.07;3.42;;;;;15.50;94507.00;;;;7401453;19;20141;-79
2023/10/11 03:10:21;;;;;;;10.05;4.05;;;;;15.40;94505.00;;;;7398244;19;20248;-80
2023/10/11 03:12:55;;;;;;;12.50;3.88;;;;;15.30;94502.00;;;;7403833;19;20139;-79
2023/10/11 03:15:30;;;;;;;6.28;3.40;;;;;15.20;94501.00;;;;7402963;19;20123;-79
2023/10/11 03:18:06;;;;;;;7.68;3.75;;;;;15.20;94504.00;;;;7400580;19;20163;-80
2023/10/11 03:20:41;;;;;;;8.52;3.67;;;;;15.10;94508.00;;;;7403048;19;20137;-81
2023/10/11 03:23:11;;;;;;;9.43;3.38;;;;;15.00;94504.00;;;;7400419;19;20125;-82
2023/10/11 03:25:44;;;;;;;14.38;4.07;;;;;15.00;94501.00;;;;7401389;19;20151;-81
2023/10/11 03:28:26;;;;;;;7.38;3.67;;;;;15.10;94497.00;;;;7402582;19;20137;-82
2023/10/11 03:30:56;;;;;;;8.80;4.15;;;;;14.90;94501.00;;;;7401537;19;20603;-81
2023/10/11 03:33:36;;;;;;;11.85;3.80;;;;;14.90;94497.00;;;;7402137;19;20596;-81
2023/10/11 03:36:18;;;;;;;10.02;4.10;;;;;14.70;94493.00;;;;7400857;19;20527;-81
2023/10/11 03:38:53;;;;;;;9.15;4.10;;;;;14.60;94495.00;;;;7403544;19;20155;-81
2023/10/11 03:41:30;;;;;;;8.60;3.75;;;;;14.80;94494.00;;;;7401112;19;20145;-81
2023/10/11 03:44:09;;;;;;;7.75;4.35;;;;;14.80;94487.00;;;;7402704;19;20152;-81
2023/10/11 03:46:41;;;;;;;11.68;3.72;;;;;15.30;94491.00;;;;7401729;19;20152;-81
2023/10/11 03:51:55;;;;;;;6.97;3.45;;;;;15.50;94488.00;;;;7401773;19;20183;-82
2023/10/11 03:54:30;;;;;;;7.63;3.58;;;;;15.70;94489.00;;;;7402040;19;20140;-82
2023/10/11 03:57:00;;;;;;;15.48;3.72;;;;;15.80;94488.00;;;;7400934;19;20483;-82
2023/10/11 03:59:38;;;;;;;11.75;3.88;;;;;16.10;94486.00;;;;7401218;19;20141;-80
2023/10/11 04:02:26;;;;;;;12.27;4.05;;;;;16.30;94485.00;;;;7401486;19;20151;-81
2023/10/11 04:05:03;;;;;;;11.93;4.18;;;;;16.50;94492.00;;;;7400757;19;20124;-81
2023/10/11 04:07:40;;;;;;;10.57;3.63;;;;;16.30;94489.00;;;;7400932;19;20596;-82
2023/10/11 04:10:10;;;;;;;9.05;3.80;;;;;16.50;94487.00;;;;7399834;19;20133;-81
2023/10/11 04:12:45;;;;;;;6.40;3.60;;;;;16.40;94481.00;;;;7399732;19;20602;-81
2023/10/11 04:15:24;;;;;;;10.60;3.65;;;;;16.40;94486.00;;;;7397187;19;20129;-81
2023/10/11 04:18:15;;;;;;;8.77;3.60;;;;;16.40;94484.00;;;;7400182;19;20148;-82
2023/10/11 04:23:45;;;;;;;9.43;3.83;;;;;15.90;94483.00;;;;7401352;19;20136;-83
2023/10/11 04:29:16;;;;;;;8.10;3.33;;;;;15.60;94483.00;;;;7399673;19;20224;-80
2023/10/11 04:34:47;;;;;;;7.97;3.78;;;;;16.00;94497.00;;;;7404595;19;20141;-80
2023/10/11 04:37:27;;;;;;;7.22;3.25;;;;;16.20;94493.00;;;;7403332;19;20173;-81
2023/10/11 04:43:25;;;;;;;12.55;3.67;;;;;16.00;94496.00;;;;7399642;19;20128;-80
2023/10/11 04:46:07;;;;;;;12.45;3.55;;;;;15.70;94501.00;;;;7401882;19;20490;-79
2023/10/11 04:48:44;;;;;;;16.73;3.85;;;;;15.70;94508.00;;;;7403511;19;20444;-81
2023/10/11 04:51:21;;;;;;;8.95;3.20;;;;;15.50;94504.00;;;;7401131;19;20137;-83
2023/10/11 04:53:57;;;;;;;11.40;3.40;;;;;15.40;94507.00;;;;7403802;19;20168;-82
2023/10/11 04:57:06;;;;;;;9.30;3.60;;;;;15.30;94505.00;;;;7402691;19;20310;-82
2023/10/11 05:02:08;;;;;;;10.23;3.78;;;;;15.20;94503.00;;;;7402528;19;20599;-80
2023/10/11 05:04:53;;;;;;;8.55;3.47;;;;;15.20;94512.00;;;;7400459;19;20954;-81
2023/10/11 05:07:28;;;;;;;10.43;4.18;;;;;15.20;94509.00;;;;7403524;19;20154;-82
2023/10/11 05:10:23;;;;;;;11.45;3.95;;;;;15.10;94510.00;;;;7401659;19;20517;-82
2023/10/11 05:13:11;;;;;;;10.32;3.47;;;;;15.10;94510.00;;;;7403412;19;20136;-82
2023/10/11 05:15:47;;;;;;;9.43;3.65;;;;;15.20;94507.00;;;;7398738;19;20144;-82
2023/10/11 05:18:24;;;;;;;11.70;3.78;;;;;15.20;94507.00;;;;7402201;19;20140;-82
2023/10/11 05:21:03;;;;;;;8.65;3.70;;;;;15.10;94505.00;;;;7402411;19;20135;-82
2023/10/11 05:26:47;;;;;;;7.05;3.42;;;;;15.00;94509.00;;;;7401856;19;20141;-82
2023/10/11 05:29:31;;;;;;;12.45;4.28;;;;;14.80;94510.00;;;;7401321;19;20133;-83
2023/10/11 05:32:20;;;;;;;9.63;3.55;;;;;14.80;94508.00;;;;7402349;19;20137;-82
2023/10/11 05:35:07;;;;;;;11.82;4.05;;;;;14.80;94505.00;;;;7401844;19;20168;-82
2023/10/11 05:52:00;;;;;;;13.57;4.72;;;;;14.70;94514.00;;;;7397788;19;20175;-85
2023/10/11 05:54:34;;;;;;;7.78;3.90;;;;;14.70;94511.00;;;;7399260;19;20214;-84
2023/10/11 05:57:08;;;;;;;15.55;3.63;;;;;14.70;94504.00;;;;7399408;19;20133;-85
2023/10/11 05:59:42;;;;;;;8.63;3.95;;;;;14.70;94517.00;;;;7397540;19;20145;-85
2023/10/11 06:02:19;;;;;;;8.30;3.50;;;;;14.80;94521.00;;;;7396283;19;20175;-85
2023/10/11 06:05:02;;;;;;;10.57;3.70;;;;;14.90;94513.00;;;;7398629;19;20527;-84
2023/10/11 06:07:37;;;;;;;6.88;3.53;;;;;15.10;94502.00;;;;7398628;19;20152;-85
2023/10/11 06:10:19;;;;;;;9.40;3.65;;;;;15.50;94503.00;;;;7396647;19;20923;-84
2023/10/11 06:12:47;;;;;;;14.27;4.13;;;;;15.60;94502.00;;;;7398076;19;20164;-85
2023/10/11 06:15:25;;;;;;;13.25;3.63;;;;;15.80;94492.00;;;;7398713;19;20608;-86
2023/10/11 06:18:01;;;;;;;11.82;3.88;;;;;16.00;94505.00;;;;7396739;19;20164;-84
2023/10/11 06:20:29;;;;;;;11.30;3.53;;;;;16.20;94499.00;;;;7398569;19;20148;-85
2023/10/11 06:23:09;;;;;;;11.98;3.67;;;;;16.50;94499.00;;;;7398798;19;20161;-85
2023/10/11 06:25:50;;;;;;;9.07;3.50;;;;;16.60;94491.00;;;;7396775;19;20212;-84
2023/10/11 06:28:31;;;;;;;16.20;4.03;;;;;16.60;94500.00;;;;7397736;19;20208;-83
2023/10/11 06:31:06;;;;;;;10.23;3.65;;;;;16.70;94495.00;;;;7397242;19;20137;-82
2023/10/11 06:33:44;;;;;;;10.95;4.45;;;;;16.90;94501.00;;;;7397300;19;20572;-83
2023/10/11 06:36:18;;;;;;;8.07;3.30;;;;;17.00;94499.00;;;;7395402;19;20145;-82
2023/10/11 06:38:47;;;;;;;9.27;3.67;;;;;17.00;94503.00;;;;7402483;19;20140;-82
2023/10/11 06:41:45;;;;;;;13.00;3.67;;;;;17.20;94501.00;;;;7404214;19;20172;-82
2023/10/11 06:44:19;;;;;;;12.82;3.60;;;;;17.20;94501.00;;;;7404628;19;20149;-82
2023/10/11 06:46:50;;;;;;;8.35;3.20;;;;;17.30;94500.00;;;;7403011;19;20500;-82
2023/10/11 06:49:28;;;;;;;9.63;3.92;;;;;17.40;94509.00;;;;7404532;19;20165;-82
2023/10/11 06:52:01;;;;;;;10.82;3.67;;;;;17.40;94508.00;;;;7399758;19;20156;-81
2023/10/11 06:54:35;;;;;;;9.75;4.30;;;;;17.60;94508.00;;;;7401110;19;20149;-81
2023/10/11 06:57:03;;;;;;;10.48;3.80;;;;;17.70;94512.00;;;;7401419;19;20610;-81
2023/10/11 06:59:41;;;;;;;11.25;4.05;;;;;17.90;94511.00;;;;7404440;19;20133;-81
2023/10/11 07:02:18;;;;;;;5.72;3.40;;;;;18.10;94512.00;;;;7401864;19;20141;-81
2023/10/11 07:05:05;;;;;;;7.63;3.72;;;;;18.10;94514.00;;;;7400423;19;20156;-81
2023/10/11 07:07:39;;;;;;;11.43;3.90;;;;;18.50;94517.00;;;;7401958;19;20149;-81
2023/10/11 07:10:28;;;;;;;16.35;4.38;;;;;18.60;94508.00;;;;7400693;19;20169;-81
2023/10/11 07:13:03;;;;;;;9.90;3.75;;;;;18.80;94509.00;;;;7401129;19;20159;-83
2023/10/11 07:15:45;;;;;;;10.00;3.50;;;;;19.10;94515.00;;;;7401231;19;20133;-82
2023/10/11 07:18:27;;;;;;;13.00;3.88;;;;;19.40;94505.00;;;;7400693;19;20162;-81
2023/10/11 07:21:08;;;;;;;13.32;3.88;;;;;19.70;94509.00;;;;7401425;19;20141;-85
2023/10/11 07:29:07;;;;;;;11.18;3.67;;;;;20.80;94517.00;;;;7403283;19;20464;-81
2023/10/11 07:31:48;;;;;;;9.85;3.72;;;;;20.70;94523.00;;;;7401942;19;20157;-84
2023/10/11 07:34:31;;;;;;;10.68;3.55;;;;;21.10;94523.00;;;;7403349;19;20136;-87
2023/10/11 07:37:11;;;;;;;11.07;3.28;;;;;21.20;94527.00;;;;7401049;19;20154;-84
2023/10/11 07:39:47;;;;;;;7.75;3.63;;;;;21.30;94528.00;;;;7403038;19;20132;-82
2023/10/11 07:42:25;;;;;;;22.65;3.88;;;;;21.30;94515.00;;;;7400771;19;20182;-81
2023/10/11 07:45:07;;;;;;;15.60;3.60;;;;;21.50;94526.00;;;;7401854;19;20136;-89
2023/10/11 07:47:36;;;;;;;14.93;4.50;;;;;21.60;94517.00;;;;7399915;19;20604;-83
2023/10/11 07:50:14;;;;;;;9.23;3.72;;;;;21.70;94524.00;;;;7399353;19;20374;-82
2023/10/11 07:52:43;;;;;;;9.88;3.55;;;;;21.80;94516.00;;;;7399158;19;20149;-84
2023/10/11 07:55:19;;;;;;;11.27;3.83;;;;;21.80;94516.00;;;;7400627;19;20627;-81
2023/10/11 07:57:59;;;;;;;15.73;3.85;;;;;22.10;94511.00;;;;7399615;19;20530;-80
2023/10/11 08:00:41;;;;;;;17.27;3.92;;;;;22.20;94523.00;;;;7401523;19;20163;-80
2023/10/11 08:03:12;;;;;;;18.20;3.97;;;;;22.30;94530.00;;;;7399780;19;20263;-80
2023/10/11 08:05:54;;;;;;;13.70;4.50;;;;;22.40;94532.00;;;;7399111;19;20144;-79
2023/10/11 08:08:24;;;;;;;10.27;3.72;;;;;22.70;94535.00;;;;7400220;19;20137;-78
2023/10/11 08:11:06;;;;;;;9.98;3.10;;;;;22.70;94529.00;;;;7400494;19;20133;-77
2023/10/11 08:13:42;;;;;;;9.50;3.72;;;;;22.90;94524.00;;;;7399963;19;20136;-79
2023/10/11 08:16:19;;;;;;;11.38;3.92;;;;;23.10;94531.00;;;;7399242;19;20144;-76
2023/10/11 08:18:49;;;;;;;13.23;3.50;;;;;23.30;94523.00;;;;7399062;19;20239;-79
2023/10/11 08:21:23;;;;;;;9.00;3.92;;;;;23.50;94526.00;;;;7399143;19;20501;-79
2023/10/11 08:23:58;;;;;;;8.73;3.83;;;;;23.50;94528.00;;;;7399080;19;20488;-77
2023/10/11 08:26:37;;;;;;;10.48;3.40;;;;;23.70;94523.00;;;;7399482;19;20141;-79
2023/10/11 08:29:30;;;;;;;12.15;3.95;;;;;23.90;94533.00;;;;7397551;19;20476;-79
2023/10/11 08:31:58;;;;;;;11.85;3.67;;;;;24.30;94532.00;;;;7396989;19;20607;-78
2023/10/11 08:34:35;;;;;;;10.75;3.72;;;;;24.30;94534.00;;;;7398867;19;20141;-83
2023/10/11 08:37:07;;;;;;;10.80;3.85;;;;;24.20;94531.00;;;;7398459;19;20141;-79
2023/10/11 08:39:44;;;;;;;15.80;4.30;;;;;24.30;94537.00;;;;7399055;19;20136;-80
2023/10/11 08:42:14;;;;;;;12.80;3.85;;;;;24.20;94533.00;;;;7398290;19;20145;-79
2023/10/11 08:45:01;;;;;;;12.05;4.18;;;;;24.40;94529.00;;;;7400474;19;20133;-80
2023/10/11 08:47:36;;;;;;;11.60;3.88;;;;;24.60;94528.00;;;;7397399;19;20151;-79
2023/10/11 08:50:18;;;;;;;9.05;3.60;;;;;24.60;94529.00;;;;7397222;19;20262;-77
2023/10/11 08:52:47;;;;;;;14.13;4.30;;;;;24.80;94529.00;;;;7396413;19;20163;-76
2023/10/11 08:55:24;;;;;;;15.38;3.90;;;;;24.50;94528.00;;;;7397364;19;20188;-80
2023/10/11 08:57:54;;;;;;;15.07;4.03;;;;;24.40;94525.00;;;;7397896;19;20136;-78
2023/10/11 09:00:29;;;;;;;9.15;3.75;;;;;24.50;94530.00;;;;7395796;19;20144;-79
2023/10/11 09:03:13;;;;;;;9.10;3.80;;;;;24.40;94524.00;;;;7397437;19;20523;-79
2023/10/11 09:06:00;;;;;;;11.45;3.88;;;;;24.90;94524.00;;;;7401052;19;20133;-79
2023/10/11 09:08:36;;;;;;;11.25;3.53;;;;;24.80;94525.00;;;;7398782;19;20141;-78
2023/10/11 09:11:14;;;;;;;13.93;3.72;;;;;24.70;94535.00;;;;7397257;19;20171;-78
2023/10/11 09:13:50;;;;;;;13.40;3.28;;;;;24.80;94524.00;;;;7397531;19;20151;-80
2023/10/11 09:16:37;;;;;;;9.52;3.50;;;;;24.70;94532.00;;;;7397851;19;20488;-79
2023/10/11 09:19:05;;;;;;;14.32;4.03;;;;;24.70;94526.00;;;;7396161;19;20163;-77
2023/10/11 09:21:42;;;;;;;13.93;3.97;;;;;24.60;94534.00;;;;7398418;19;20144;-79
2023/10/11 09:24:24;;;;;;;16.10;4.05;;;;;24.90;94532.00;;;;7397312;19;20152;-79
2023/10/11 09:29:52;;;;;;;12.85;4.20;;;;;24.60;94538.00;;;;7397380;19;20161;-80
2023/10/11 09:32:35;;;;;;;10.35;4.00;;;;;24.70;94550.00;;;;7397188;19;20634;-77
2023/10/11 09:35:27;;;;;;;10.93;3.83;;;;;24.40;94536.00;;;;7398583;19;20136;-78
2023/10/11 09:38:01;;;;;;;11.35;3.83;;;;;24.40;94544.00;;;;7398708;19;20471;-79
2023/10/11 09:40:34;;;;;;;16.48;4.32;;;;;24.50;94542.00;;;;7395261;19;20168;-77
2023/10/11 09:43:13;;;;;;;18.13;3.97;;;;;24.40;94545.00;;;;7396263;19;20176;-76
2023/10/11 09:45:53;;;;;;;11.70;3.58;;;;;24.50;94545.00;;;;7396012;19;20607;-76
2023/10/11 09:48:29;;;;;;;13.10;3.35;;;;;24.60;94549.00;;;;7395287;19;20600;-76
2023/10/11 09:50:57;;;;;;;10.02;3.70;;;;;24.40;94557.00;;;;7397039;19;20140;-76
2023/10/11 09:53:32;;;;;;;15.60;3.40;;;;;24.50;94551.00;;;;7394930;19;20136;-78
2023/10/11 09:56:59;;;;;;;9.10;3.53;;;;;24.50;94541.00;;;;7396639;19;20133;-76
2023/10/11 10:00:18;;;;;;;17.80;3.78;;;;;24.80;94540.00;;;;7393298;19;20630;-76
2023/10/11 10:03:13;;;;;;;9.23;3.13;;;;;24.60;94548.00;;;;7392984;19;20537;-78
2023/10/11 10:06:24;;;;;;;11.07;3.83;;;;;24.80;94552.00;;;;7397265;19;20133;-76
2023/10/11 10:09:23;;;;;;;10.55;3.40;;;;;24.70;94549.00;;;;7395790;19;20208;-77
2023/10/11 10:12:09;;;;;;;12.25;3.55;;;;;24.40;94552.00;;;;7394263;19;20148;-76
2023/10/11 10:14:45;;;;;;;10.75;3.55;;;;;24.50;94560.00;;;;7393361;19;20156;-75
2023/10/11 10:17:20;;;;;;;11.10;3.90;;;;;24.20;94560.00;;;;7394036;19;20148;-77
2023/10/11 10:20:41;;;;;;;9.05;3.38;;;;;24.50;94565.00;;;;7396210;19;20503;-79
2023/10/11 10:23:15;;;;;;;9.40;3.22;;;;;24.50;94560.00;;;;7392827;19;20155;-82
2023/10/11 10:25:46;;;;;;;12.60;3.70;;;;;24.70;94554.00;;;;7396050;19;20572;-78
2023/10/11 10:28:32;;;;;;;13.93;3.67;;;;;25.50;94557.00;;;;7395398;19;20468;-81
2023/10/11 10:31:16;;;;;;;14.10;3.72;;;;;25.50;94562.00;;;;7393829;19;20148;-81
2023/10/11 10:34:13;;;;;;;11.95;3.85;;;;;25.10;94566.00;;;;7392775;19;20152;-77
2023/10/11 10:36:43;;;;;;;9.85;3.47;;;;;25.30;94559.00;;;;7394946;19;20627;-78
2023/10/11 10:42:24;;;;;;;10.85;3.50;;;;;25.20;94549.00;;;;7394174;19;20637;-78
2023/10/11 10:44:59;;;;;;;12.90;4.03;;;;;25.20;94555.00;;;;7394718;19;20183;-82
2023/10/11 10:47:31;;;;;;;7.38;3.40;;;;;25.70;94544.00;;;;7395531;19;20145;-79
2023/10/11 10:50:21;;;;;;;13.23;3.45;;;;;25.90;94553.00;;;;7395466;19;20148;-83
2023/10/11 10:52:53;;;;;;;12.35;3.63;;;;;25.70;94540.00;;;;7394675;19;20173;-81
2023/10/11 10:55:35;;;;;;;12.60;3.08;;;;;26.10;94535.00;;;;7395079;19;20137;-83
2023/10/11 10:58:19;;;;;;;13.02;4.28;;;;;26.70;94536.00;;;;7396643;19;20168;-85
2023/10/11 11:00:54;;;;;;;12.30;4.32;;;;;26.80;94528.00;;;;7396735;19;20501;-83
2023/10/11 11:03:37;;;;;;;9.77;3.78;;;;;27.40;94527.00;;;;7392502;19;20172;-82
2023/10/11 11:06:11;;;;;;;14.18;4.00;;;;;27.00;94529.00;;;;7395597;19;20141;-77
2023/10/11 11:08:46;;;;;;;9.57;3.78;;;;;27.20;94527.00;;;;7396393;19;20129;-81
2023/10/11 11:11:26;;;;;;;7.90;3.28;;;;;27.30;94520.00;;;;7396139;19;20172;-82
2023/10/11 11:14:13;;;;;;;9.50;3.83;;;;;27.50;94525.00;;;;7396786;19;20152;-83
2023/10/11 11:17:09;;;;;;;10.75;3.63;;;;;27.10;94529.00;;;;7394358;19;20604;-81
2023/10/11 11:20:00;;;;;;;15.60;4.45;;;;;26.80;94530.00;;;;7394939;19;20167;-82
2023/10/11 11:22:39;;;;;;;6.95;3.83;;;;;26.60;94523.00;;;;7395576;19;20625;-80
2023/10/11 11:25:27;;;;;;;6.40;3.90;;;;;26.30;94509.00;;;;7398965;19;20152;-75
2023/10/11 11:28:15;;;;;;;8.90;4.03;;;;;26.60;94504.00;;;;7400998;19;20133;-77
2023/10/11 11:30:57;;;;;;;8.50;3.42;;;;;27.20;94511.00;;;;7400122;19;20172;-76
2023/10/11 11:33:47;;;;;;;11.52;3.78;;;;;28.10;94510.00;;;;7399621;19;20148;-80
2023/10/11 11:36:30;;;;;;;6.38;3.33;;;;;27.90;94498.00;;;;7401253;19;20148;-77
2023/10/11 11:39:17;;;;;;;13.80;3.85;;;;;28.20;94491.00;;;;7401468;19;20137;-80
2023/10/11 11:41:57;;;;;;;8.65;3.75;;;;;28.10;94493.00;;;;7400100;19;20149;-79
2023/10/11 11:44:32;;;;;;;9.45;3.67;;;;;27.40;94487.00;;;;7400841;19;20140;-73
2023/10/11 11:47:06;;;;;;;13.55;4.63;;;;;27.50;94477.00;;;;7400532;19;20153;-77
2023/10/11 11:49:40;;;;;;;15.45;4.35;;;;;28.00;94468.00;;;;7399410;19;20147;-77
2023/10/11 11:52:18;;;;;;;8.52;3.40;;;;;28.00;94463.00;;;;7399018;19;20159;-77
2023/10/11 11:54:54;;;;;;;12.48;3.60;;;;;27.40;94458.00;;;;7400953;19;20765;-79
2023/10/11 11:57:31;;;;;;;12.93;3.58;;;;;27.80;94462.00;;;;7401618;19;20164;-77
2023/10/11 12:00:16;;;;;;;7.22;3.45;;;;;28.10;94464.00;;;;7400459;19;20620;-78
2023/10/11 12:02:58;;;;;;;12.40;3.63;;;;;28.20;94471.00;;;;7398629;19;20149;-80
2023/10/11 12:05:40;;;;;;;10.20;3.33;;;;;27.60;94465.00;;;;7400392;19;20465;-76
2023/10/11 12:08:21;;;;;;;9.32;3.38;;;;;27.80;94461.00;;;;7401650;19;20136;-77
2023/10/11 12:10:55;;;;;;;11.15;3.42;;;;;27.10;94468.00;;;;7395555;19;20223;-77
2023/10/11 12:13:23;;;;;;;25.90;4.40;;;;;26.60;94463.00;;;;7396936;19;20156;-76
2023/10/11 12:15:57;;;;;;;9.73;3.35;;;;;27.10;94454.00;;;;7395382;19;20240;-76
2023/10/11 12:18:33;;;;;;;11.20;3.67;;;;;26.60;94457.00;;;;7397464;19;20133;-76
2023/10/11 12:21:16;;;;;;;8.05;3.25;;;;;26.90;94454.00;;;;7396204;19;20163;-79
2023/10/11 12:23:47;;;;;;;14.70;3.45;;;;;27.20;94453.00;;;;7396529;19;20148;-75
2023/10/11 12:26:27;;;;;;;9.23;3.58;;;;;27.60;94449.00;;;;7398162;19;20129;-78
2023/10/11 12:29:06;;;;;;;8.75;3.40;;;;;28.20;94452.00;;;;7398852;19;20150;-78
2023/10/11 12:31:41;;;;;;;7.97;3.50;;;;;28.10;94456.00;;;;7398630;19;20155;-76
2023/10/11 12:34:27;;;;;;;10.80;4.00;;;;;28.90;94439.00;;;;7399197;19;20140;-79
2023/10/11 12:37:14;;;;;;;8.20;3.60;;;;;29.30;94446.00;;;;7397289;19;20659;-75
2023/10/11 12:39:42;;;;;;;10.32;3.88;;;;;29.10;94442.00;;;;7397500;19;20487;-80
2023/10/11 12:42:16;;;;;;;12.43;3.70;;;;;29.30;94442.00;;;;7399770;19;20615;-75
2023/10/11 12:44:45;;;;;;;7.03;3.70;;;;;29.70;94439.00;;;;7384108;19;20162;-79
2023/10/11 12:47:23;;;;;;;8.55;4.15;;;;;29.80;94440.00;;;;7387770;19;20144;-79
2023/10/11 12:49:51;;;;;;;8.65;4.00;;;;;30.00;94437.00;;;;7385319;19;20216;-80
2023/10/11 12:52:30;;;;;;;10.57;3.67;;;;;30.30;94433.00;;;;7387968;19;20196;-76
2023/10/11 12:55:06;;;;;;;10.32;3.75;;;;;30.00;94427.00;;;;7385883;19;20491;-77
2023/10/11 12:57:43;;;;;;;7.15;3.75;;;;;29.60;94424.00;;;;7385261;19;20148;-83
2023/10/11 13:00:31;;;;;;;13.27;4.03;;;;;29.00;94448.00;;;;7387431;19;20758;-80
2023/10/11 13:03:25;;;;;;;5.95;3.60;;;;;29.00;94436.00;;;;7384999;19;20149;-77
2023/10/11 13:06:03;;;;;;;7.43;3.97;;;;;27.90;94446.00;;;;7386047;19;20144;-76
2023/10/11 13:08:38;;;;;;;10.00;3.50;;;;;28.70;94437.00;;;;7387622;19;20686;-80
2023/10/11 13:11:14;;;;;;;7.20;3.47;;;;;28.10;94433.00;;;;7388658;19;20187;-75
2023/10/11 13:13:49;;;;;;;14.02;3.85;;;;;28.30;94437.00;;;;7387665;19;20129;-75
2023/10/11 13:16:26;;;;;;;9.73;4.25;;;;;26.80;94448.00;;;;7388106;19;20149;-83
2023/10/11 13:19:18;;;;;;;16.42;3.60;;;;;26.90;94443.00;;;;7397837;19;20576;-77
2023/10/11 13:21:47;;;;;;;7.43;3.75;;;;;26.80;94448.00;;;;7406045;19;20141;-86
2023/10/11 13:24:47;;;;;;;6.70;3.47;;;;;26.80;94449.00;;;;7400053;19;20656;-78
2023/10/11 13:27:22;;;;;;;8.07;3.38;;;;;26.70;94449.00;;;;7393257;19;20600;-78
2023/10/11 13:30:02;;;;;;;11.35;3.65;;;;;26.50;94423.00;;;;7389343;19;20620;-80
2023/10/11 13:32:44;;;;;;;7.47;3.75;;;;;26.20;94435.00;;;;7386456;19;20209;-82
2023/10/11 13:35:22;;;;;;;11.18;4.20;;;;;26.50;94441.00;;;;7385746;19;20153;-80
2023/10/11 13:37:51;;;;;;;7.28;3.30;;;;;26.10;94433.00;;;;7387400;19;20655;-81
2023/10/11 13:40:32;;;;;;;9.90;3.25;;;;;26.30;94439.00;;;;7384823;19;20608;-79
2023/10/11 13:43:08;;;;;;;9.65;3.30;;;;;26.10;94442.00;;;;7384645;19;20165;-78
2023/10/11 13:46:01;;;;;;;8.73;3.92;;;;;25.70;94433.00;;;;7385366;19;20605;-79
2023/10/11 13:48:40;;;;;;;13.70;4.25;;;;;26.00;94428.00;;;;7384805;19;20607;-75
2023/10/11 13:51:27;;;;;;;8.60;3.50;;;;;25.60;94421.00;;;;7386235;19;20494;-77